Time;durP1;ratioP1;P1;durP2;ratioP2;P2;SDS_P1;SDS_P2;PMS_P1;PMS_P2;Temp;Humidity;BMP_temperature;BMP_pressure;BME280_temperature;BME280_humidity;BME280_pressure;Samples;Min_cycle;Max_cycle;Signal;HPM_P1;HPM_P2
2024/03/27 00:00:23;;;;;;;4.90;1.98;;;;;;;8.62;87.84;98229.31;5056885;28;20056;-55
2024/03/27 00:02:49;;;;;;;3.63;2.10;;;;;;;8.80;87.38;98217.53;5056906;28;20067;-60
2024/03/27 00:05:16;;;;;;;5.13;2.20;;;;;;;8.90;87.13;98213.41;5065276;28;20052;-59
2024/03/27 00:07:42;;;;;;;3.45;1.90;;;;;;;8.95;86.78;98204.88;5047289;28;20053;-57
2024/03/27 00:10:08;;;;;;;5.50;2.42;;;;;;;8.92;87.09;98197.38;5049032;28;20049;-55
2024/03/27 00:12:35;;;;;;;5.10;2.63;;;;;;;8.83;87.54;98194.06;5061769;28;20040;-58
2024/03/27 00:15:02;;;;;;;5.30;2.20;;;;;;;8.61;88.10;98192.06;5068104;28;20044;-58
2024/03/27 00:17:28;;;;;;;4.05;2.03;;;;;;;8.74;88.36;98183.31;5053728;28;20051;-57
2024/03/27 00:19:55;;;;;;;4.78;1.92;;;;;;;8.87;87.79;98181.22;5069012;28;20707;-59
2024/03/27 00:22:21;;;;;;;3.40;2.00;;;;;;;8.97;86.97;98180.59;5053270;28;20055;-63
2024/03/27 00:24:48;;;;;;;7.10;2.20;;;;;;;8.81;87.08;98179.91;5067252;28;20057;-62
2024/03/27 00:27:14;;;;;;;6.13;2.22;;;;;;;8.75;87.11;98176.66;5049520;28;20659;-66
2024/03/27 00:29:40;;;;;;;3.95;2.20;;;;;;;8.51;88.46;98184.41;5061065;28;20044;-62
2024/03/27 00:32:06;;;;;;;5.75;2.22;;;;;;;8.78;88.24;98178.69;5050229;28;20049;-57
2024/03/27 00:34:33;;;;;;;5.60;2.60;;;;;;;8.83;87.85;98181.16;5048053;28;20365;-57
2024/03/27 00:37:00;;;;;;;5.80;2.10;;;;;;;8.76;87.95;98193.94;5049384;28;20055;-58
2024/03/27 00:39:27;;;;;;;5.20;2.25;;;;;;;8.61;88.93;98184.59;5066069;28;20049;-57
2024/03/27 00:41:53;;;;;;;6.50;2.40;;;;;;;8.67;88.76;98188.66;5066489;28;20061;-61
2024/03/27 00:44:19;;;;;;;4.22;2.08;;;;;;;8.67;89.16;98196.91;5054945;28;20053;-56
2024/03/27 00:46:45;;;;;;;4.25;2.55;;;;;;;8.65;89.46;98190.97;5046740;28;20571;-55
2024/03/27 00:49:12;;;;;;;7.07;2.63;;;;;;;8.52;90.33;98192.28;5047003;28;20048;-55
2024/03/27 00:51:39;;;;;;;4.70;2.53;;;;;;;8.50;90.87;98193.78;5058506;28;20053;-57
2024/03/27 00:54:05;;;;;;;5.35;2.50;;;;;;;8.79;90.22;98191.25;5066282;28;20052;-57
2024/03/27 00:56:32;;;;;;;7.18;3.28;;;;;;;8.74;90.25;98188.81;5064340;28;20044;-55
2024/03/27 00:58:58;;;;;;;5.18;3.05;;;;;;;8.70;90.23;98190.69;5066585;28;20044;-58
2024/03/27 01:01:25;;;;;;;6.82;2.92;;;;;;;8.70;90.89;98198.13;5030698;28;20056;-53
2024/03/27 01:03:51;;;;;;;6.10;2.88;;;;;;;8.81;90.37;98188.13;5065842;28;20057;-59
2024/03/27 01:06:17;;;;;;;6.50;3.10;;;;;;;9.01;90.18;98185.00;5032844;28;20131;-57
2024/03/27 01:08:43;;;;;;;5.00;3.08;;;;;;;8.85;90.07;98191.75;5049561;28;20048;-56
2024/03/27 01:11:10;;;;;;;5.65;2.70;;;;;;;8.78;90.55;98197.91;5058424;28;20049;-56
2024/03/27 01:13:36;;;;;;;7.35;3.25;;;;;;;8.81;90.65;98193.63;5030025;28;20060;-58
2024/03/27 01:16:03;;;;;;;7.97;3.40;;;;;;;8.77;91.07;98199.03;5065912;28;20055;-59
2024/03/27 01:18:29;;;;;;;5.43;3.00;;;;;;;8.86;90.88;98196.88;5053281;28;20574;-54
2024/03/27 01:20:55;;;;;;;7.70;3.58;;;;;;;8.93;90.92;98177.78;5054403;28;20479;-57
2024/03/27 01:23:22;;;;;;;6.50;3.50;;;;;;;8.78;91.89;98189.69;5069907;28;20578;-56
2024/03/27 01:25:49;;;;;;;7.05;3.35;;;;;;;8.90;91.93;98196.94;5070376;28;20679;-59
2024/03/27 01:28:15;;;;;;;6.13;3.15;;;;;;;8.95;91.74;98216.66;5071060;28;20045;-57
2024/03/27 01:30:42;;;;;;;6.05;3.50;;;;;;;9.17;91.57;98219.81;5069922;28;20513;-58
2024/03/27 01:33:08;;;;;;;6.00;3.67;;;;;;;9.18;90.61;98218.63;5070701;28;20052;-57
2024/03/27 01:35:34;;;;;;;8.80;3.47;;;;;;;9.18;90.22;98205.72;5069116;28;20054;-57
2024/03/27 01:38:02;;;;;;;10.02;3.78;;;;;;;9.05;90.29;98210.56;5069087;28;20067;-57
2024/03/27 01:40:28;;;;;;;6.72;3.88;;;;;;;9.01;91.43;98206.97;5069353;28;20052;-56
2024/03/27 01:42:58;;;;;;;6.45;3.85;;;;;;;9.20;91.29;98197.91;5053314;28;20061;-57
2024/03/27 01:45:25;;;;;;;7.25;4.07;;;;;;;9.15;91.70;98202.91;5069895;28;20060;-55
2024/03/27 01:47:51;;;;;;;6.93;4.10;;;;;;;9.18;91.36;98208.47;5052408;28;20056;-58
2024/03/27 01:50:23;;;;;;;6.57;3.80;;;;;;;9.05;91.74;98198.78;5066150;28;20570;-59
2024/03/27 01:52:50;;;;;;;6.78;4.38;;;;;;;9.07;92.96;98200.03;5033525;28;20061;-57
2024/03/27 01:55:17;;;;;;;6.75;4.00;;;;;;;9.13;92.68;98193.06;5063516;28;20506;-57
2024/03/27 01:57:43;;;;;;;6.30;3.80;;;;;;;9.13;92.31;98200.53;5069560;28;20051;-57
2024/03/27 02:00:10;;;;;;;8.68;4.32;;;;;;;9.18;92.12;98193.91;5036297;28;20064;-58
2024/03/27 02:02:39;;;;;;;6.90;4.37;;;;;;;9.02;92.30;98183.06;5053425;28;20052;-58
2024/03/27 02:05:09;;;;;;;8.27;4.20;;;;;;;9.09;92.73;98177.69;5060159;28;20065;-57
2024/03/27 02:07:39;;;;;;;8.05;4.32;;;;;;;9.12;92.97;98179.69;5050399;28;20068;-55
2024/03/27 02:10:07;;;;;;;7.72;4.70;;;;;;;9.03;92.96;98162.69;5038343;28;20045;-58
2024/03/27 02:12:34;;;;;;;8.63;4.28;;;;;;;8.95;93.05;98170.00;5032870;28;20057;-58
2024/03/27 02:15:05;;;;;;;9.23;4.30;;;;;;;9.05;93.15;98155.66;5049534;28;20308;-59
2024/03/27 02:17:31;;;;;;;8.38;4.65;;;;;;;9.10;93.00;98176.50;5057066;28;20056;-60
2024/03/27 02:19:58;;;;;;;8.35;4.65;;;;;;;8.99;93.01;98173.59;5064754;28;20056;-55
2024/03/27 02:22:25;;;;;;;7.22;3.92;;;;;;;8.86;93.96;98163.94;5069204;28;20487;-58
2024/03/27 02:24:56;;;;;;;8.68;4.47;;;;;;;8.99;93.60;98154.38;5067628;28;20072;-57
2024/03/27 02:27:23;;;;;;;8.82;4.45;;;;;;;9.19;93.37;98146.09;5052331;28;20057;-57
2024/03/27 02:29:49;;;;;;;10.00;4.38;;;;;;;9.17;93.12;98134.69;5051127;28;20052;-58
2024/03/27 02:32:16;;;;;;;6.80;4.20;;;;;;;9.36;92.02;98132.66;5037240;28;20057;-60
2024/03/27 02:34:42;;;;;;;8.38;4.20;;;;;;;9.18;92.24;98130.75;5038888;28;20056;-54
2024/03/27 02:37:09;;;;;;;10.07;4.40;;;;;;;9.10;92.84;98127.91;5053269;28;20056;-60
2024/03/27 02:39:35;;;;;;;7.60;4.47;;;;;;;9.26;91.91;98144.25;5051829;28;20047;-58
2024/03/27 02:42:01;;;;;;;9.27;4.70;;;;;;;9.19;92.43;98154.34;5068756;28;20081;-57
2024/03/27 02:44:28;;;;;;;7.38;4.22;;;;;;;9.17;91.86;98149.19;5064728;28;20060;-59
2024/03/27 02:46:54;;;;;;;8.57;4.05;;;;;;;9.17;92.37;98148.41;5048682;28;20056;-59
2024/03/27 02:49:20;;;;;;;8.50;4.40;;;;;;;9.13;91.71;98156.59;5057937;28;20087;-58
2024/03/27 02:51:47;;;;;;;8.30;4.65;;;;;;;9.13;92.09;98151.88;5052278;28;20056;-56
2024/03/27 02:54:16;;;;;;;9.63;4.20;;;;;;;9.10;92.21;98151.81;5050084;28;20056;-57
2024/03/27 02:56:42;;;;;;;6.82;4.20;;;;;;;9.23;92.21;98155.97;5048589;28;20295;-57
2024/03/27 02:59:08;;;;;;;9.52;4.68;;;;;;;9.25;91.92;98156.41;5048417;28;20120;-57
2024/03/27 03:01:35;;;;;;;11.93;4.25;;;;;;;9.13;91.65;98162.06;5048582;28;20045;-55
2024/03/27 03:04:01;;;;;;;7.95;4.20;;;;;;;9.10;91.73;98152.59;5048659;28;20049;-55
2024/03/27 03:06:27;;;;;;;6.60;4.28;;;;;;;9.01;92.09;98149.31;5067824;28;20053;-56
2024/03/27 03:08:54;;;;;;;7.50;4.13;;;;;;;9.06;91.55;98137.25;5068092;28;20048;-56
2024/03/27 03:11:20;;;;;;;8.35;4.53;;;;;;;9.15;91.53;98139.75;5059960;28;20045;-58
2024/03/27 03:13:46;;;;;;;6.60;4.28;;;;;;;9.36;90.32;98127.16;5048258;28;20048;-56
2024/03/27 03:16:12;;;;;;;7.70;4.05;;;;;;;9.26;90.45;98125.00;5057370;28;20138;-57
2024/03/27 03:18:39;;;;;;;8.90;4.10;;;;;;;9.10;90.65;98132.59;5047932;28;20055;-58
2024/03/27 03:21:06;;;;;;;9.82;4.80;;;;;;;9.15;90.95;98134.25;5064862;28;20048;-57
2024/03/27 03:23:33;;;;;;;6.60;3.75;;;;;;;9.27;90.86;98123.88;5067605;28;20071;-57
2024/03/27 03:26:01;;;;;;;12.57;4.00;;;;;;;9.22;90.36;98113.19;5055544;28;20053;-58
2024/03/27 03:28:27;;;;;;;8.18;4.25;;;;;;;9.03;91.36;98118.75;5048601;28;20060;-59
2024/03/27 03:30:53;;;;;;;6.35;3.85;;;;;;;9.18;91.07;98111.53;5060467;28;20048;-58
2024/03/27 03:33:19;;;;;;;9.45;4.07;;;;;;;9.24;90.33;98107.34;5067887;28;20115;-57
2024/03/27 03:35:56;;;;;;;7.70;3.90;;;;;;;9.15;90.24;98098.53;5066651;28;20067;-59
2024/03/27 03:38:22;;;;;;;7.35;3.80;;;;;;;9.22;89.88;98104.16;5064268;28;20068;-56
2024/03/27 03:40:55;;;;;;;8.45;4.05;;;;;;;9.42;89.68;98103.69;5055020;28;20427;-57
2024/03/27 03:43:21;;;;;;;6.97;4.28;;;;;;;9.25;89.30;98108.91;5067426;28;20059;-58
2024/03/27 03:45:48;;;;;;;8.88;4.07;;;;;;;9.24;89.21;98093.59;5054308;28;20064;-60
2024/03/27 03:48:15;;;;;;;6.85;4.10;;;;;;;9.28;89.01;98091.69;5049078;28;20056;-57
2024/03/27 03:50:41;;;;;;;6.65;3.60;;;;;;;9.21;89.31;98084.13;5057507;28;20063;-59
2024/03/27 03:53:08;;;;;;;5.90;3.60;;;;;;;9.27;89.02;98081.88;5047181;28;20045;-59
2024/03/27 03:55:35;;;;;;;7.15;3.80;;;;;;;9.13;89.48;98074.19;5047810;28;20048;-59
2024/03/27 03:58:01;;;;;;;8.85;4.10;;;;;;;9.22;89.08;98076.69;5030784;28;20526;-59
2024/03/27 04:00:27;;;;;;;10.77;3.90;;;;;;;9.23;89.26;98070.03;5058750;28;20115;-63
2024/03/27 04:02:54;;;;;;;8.57;3.60;;;;;;;9.18;89.35;98078.59;5067360;28;20099;-60
2024/03/27 04:05:20;;;;;;;8.38;3.60;;;;;;;9.29;89.58;98079.56;5039629;28;20049;-57
2024/03/27 04:07:47;;;;;;;7.63;4.53;;;;;;;9.27;88.92;98093.66;5047320;28;20064;-58
2024/03/27 04:10:14;;;;;;;8.40;4.45;;;;;;;9.23;89.48;98102.97;5047403;28;20041;-57
2024/03/27 04:12:40;;;;;;;6.68;4.32;;;;;;;9.12;90.21;98111.03;5047469;28;20056;-58
2024/03/27 04:15:07;;;;;;;7.72;4.20;;;;;;;9.20;90.26;98104.53;5049964;28;20534;-56
2024/03/27 04:17:33;;;;;;;8.68;4.63;;;;;;;9.23;89.75;98101.03;5060267;28;20056;-60
2024/03/27 04:20:00;;;;;;;9.07;3.78;;;;;;;9.27;89.92;98103.84;5066280;28;20665;-56
2024/03/27 04:22:30;;;;;;;10.45;3.85;;;;;;;9.28;89.85;98102.66;5065530;28;20066;-57
2024/03/27 04:24:57;;;;;;;8.88;3.65;;;;;;;9.43;89.23;98101.75;5057765;28;20052;-55
2024/03/27 04:27:24;;;;;;;8.13;3.78;;;;;;;9.49;88.73;98090.06;5050283;28;20059;-59
2024/03/27 04:29:54;;;;;;;7.28;3.85;;;;;;;9.40;88.98;98089.53;5046120;28;20053;-57
2024/03/27 04:32:21;;;;;;;6.68;4.00;;;;;;;9.30;89.15;98083.88;5065660;28;20052;-58
2024/03/27 04:34:47;;;;;;;5.68;3.70;;;;;;;9.44;88.58;98090.38;5065725;28;20059;-58
2024/03/27 04:37:13;;;;;;;7.20;3.53;;;;;;;9.35;89.39;98089.06;5037569;28;20048;-59
2024/03/27 04:39:40;;;;;;;5.75;3.53;;;;;;;9.33;89.29;98089.41;5054941;28;20048;-61
2024/03/27 04:42:08;;;;;;;9.05;3.72;;;;;;;9.19;89.81;98088.44;5058305;28;20048;-59
2024/03/27 04:44:35;;;;;;;8.82;4.25;;;;;;;9.17;90.40;98079.75;5045977;28;20057;-58
2024/03/27 04:47:02;;;;;;;8.20;3.97;;;;;;;9.23;90.50;98083.75;5046627;28;20087;-59
2024/03/27 04:49:28;;;;;;;6.50;3.72;;;;;;;9.18;90.38;98086.81;5062895;28;20424;-59
2024/03/27 04:51:55;;;;;;;8.07;2.97;;;;;;;9.33;90.13;98085.91;5045883;28;20059;-58
2024/03/27 04:54:22;;;;;;;6.10;3.08;;;;;;;9.25;89.93;98086.94;5046606;28;20060;-58
2024/03/27 04:56:48;;;;;;;8.60;3.60;;;;;;;9.42;89.56;98097.41;5028839;28;20428;-57
2024/03/27 04:59:14;;;;;;;6.55;3.30;;;;;;;9.50;89.05;98094.38;5066720;28;20071;-56
2024/03/27 05:01:41;;;;;;;6.78;3.40;;;;;;;9.46;88.99;98090.00;5065848;28;20048;-57
2024/03/27 05:04:07;;;;;;;5.70;3.47;;;;;;;9.43;89.25;98099.78;5060629;28;20049;-55
2024/03/27 05:06:39;;;;;;;6.05;2.75;;;;;;;9.34;89.12;98081.97;5046374;28;20489;-60
2024/03/27 05:09:10;;;;;;;6.03;3.05;;;;;;;9.42;88.96;98080.91;5049055;28;20052;-60
2024/03/27 05:11:38;;;;;;;7.93;3.22;;;;;;;9.37;88.84;98079.28;5064199;28;20044;-57
2024/03/27 05:14:05;;;;;;;8.23;3.17;;;;;;;9.33;89.27;98088.66;5056592;28;20504;-56
2024/03/27 05:16:35;;;;;;;6.90;3.08;;;;;;;9.28;89.44;98095.22;5025367;28;20055;-56
2024/03/27 05:19:02;;;;;;;7.30;3.22;;;;;;;9.18;90.11;98101.34;5033456;28;20068;-57
2024/03/27 05:21:29;;;;;;;5.93;3.42;;;;;;;9.36;89.71;98104.38;5046291;28;20540;-56
2024/03/27 05:23:55;;;;;;;5.85;3.33;;;;;;;9.33;89.88;98096.88;5045909;28;20057;-58
2024/03/27 05:26:22;;;;;;;5.10;3.28;;;;;;;9.37;89.69;98100.47;5046380;28;20053;-56
2024/03/27 05:28:48;;;;;;;5.93;3.33;;;;;;;9.40;89.24;98096.97;5063094;28;20067;-57
2024/03/27 05:31:14;;;;;;;6.25;3.05;;;;;;;9.54;88.27;98098.00;5057510;28;20044;-58
2024/03/27 05:33:41;;;;;;;7.15;3.28;;;;;;;9.44;88.39;98101.38;5050600;28;20052;-56
2024/03/27 05:36:07;;;;;;;5.60;3.03;;;;;;;9.41;88.57;98113.13;5050888;28;20059;-57
2024/03/27 05:38:33;;;;;;;8.05;3.45;;;;;;;9.27;88.90;98106.59;5064932;28;20084;-58
2024/03/27 05:41:00;;;;;;;6.18;3.13;;;;;;;9.32;89.08;98120.00;5054094;28;20051;-56
2024/03/27 05:43:26;;;;;;;7.05;3.65;;;;;;;9.55;88.58;98113.34;5046392;28;20045;-59
2024/03/27 05:45:52;;;;;;;6.55;3.15;;;;;;;9.35;88.46;98120.06;5044684;28;20579;-57
2024/03/27 05:48:19;;;;;;;8.18;3.67;;;;;;;9.32;89.74;98112.56;5055195;28;20048;-60
2024/03/27 05:50:45;;;;;;;7.10;3.40;;;;;;;9.25;88.23;98114.41;5045845;28;20044;-58
2024/03/27 05:53:12;;;;;;;8.13;3.40;;;;;;;9.34;88.92;98117.69;5045490;28;20053;-60
2024/03/27 05:55:39;;;;;;;11.70;3.25;;;;;;;9.13;88.32;98120.88;5045694;28;20539;-59
2024/03/27 05:58:05;;;;;;;8.65;3.50;;;;;;;8.97;88.92;98128.44;5045867;28;20515;-58
2024/03/27 06:00:32;;;;;;;6.90;3.15;;;;;;;9.19;88.16;98133.13;5055592;28;20048;-54
2024/03/27 06:02:58;;;;;;;5.43;3.40;;;;;;;9.22;87.90;98134.38;5066135;28;20056;-58
2024/03/27 06:05:25;;;;;;;6.28;3.33;;;;;;;9.14;88.16;98141.69;5068931;28;20060;-58
2024/03/27 06:07:51;;;;;;;10.10;3.53;;;;;;;9.19;88.03;98135.09;5052560;28;20048;-55
2024/03/27 06:10:18;;;;;;;6.53;3.28;;;;;;;9.36;87.40;98134.59;5052628;28;20083;-57
2024/03/27 06:12:44;;;;;;;7.45;3.42;;;;;;;9.12;87.76;98130.28;5052656;28;20055;-56
2024/03/27 06:15:11;;;;;;;7.22;3.42;;;;;;;9.09;88.31;98125.50;5051036;28;20044;-58
2024/03/27 06:17:37;;;;;;;10.68;3.47;;;;;;;9.29;88.48;98137.22;5034803;28;20419;-55
2024/03/27 06:20:04;;;;;;;6.95;3.45;;;;;;;9.31;87.52;98141.19;5068879;28;20266;-58
2024/03/27 06:22:30;;;;;;;8.30;3.47;;;;;;;9.45;87.41;98138.66;5052357;28;20714;-59
2024/03/27 06:24:56;;;;;;;6.82;3.20;;;;;;;9.37;86.87;98138.94;5069389;28;20041;-57
2024/03/27 06:27:23;;;;;;;8.77;3.28;;;;;;;9.26;87.11;98146.22;5068840;28;20060;-57
2024/03/27 06:29:50;;;;;;;6.93;3.50;;;;;;;9.19;87.30;98155.09;5052534;28;20057;-60
2024/03/27 06:32:16;;;;;;;7.25;3.28;;;;;;;9.21;87.14;98154.72;5036102;28;20047;-57
2024/03/27 06:34:42;;;;;;;5.85;2.90;;;;;;;9.30;87.02;98152.53;5070198;28;20531;-57
2024/03/27 06:37:09;;;;;;;6.65;3.25;;;;;;;9.29;86.43;98153.72;5066360;28;20378;-60
2024/03/27 06:39:35;;;;;;;8.48;3.70;;;;;;;9.30;87.04;98158.03;5069202;28;20660;-57
2024/03/27 06:42:03;;;;;;;5.63;3.25;;;;;;;9.51;86.58;98156.44;5069182;28;20099;-57
2024/03/27 06:44:30;;;;;;;6.18;3.10;;;;;;;9.53;85.96;98167.06;5066102;28;20067;-56
2024/03/27 06:46:56;;;;;;;7.10;3.28;;;;;;;9.49;85.36;98164.25;5048763;28;20052;-56
2024/03/27 06:49:32;;;;;;;6.63;3.00;;;;;;;9.25;85.79;98161.91;5048713;28;20048;-60
2024/03/27 06:51:59;;;;;;;8.90;3.30;;;;;;;9.08;86.54;98160.41;5048527;28;20045;-60
2024/03/27 06:54:26;;;;;;;7.35;2.83;;;;;;;9.17;86.84;98164.88;5049489;28;20055;-59
2024/03/27 06:56:52;;;;;;;5.85;2.40;;;;;;;9.72;85.35;98159.53;5061906;28;20057;-60
2024/03/27 06:59:18;;;;;;;7.45;2.63;;;;;;;9.34;83.88;98156.94;5063334;28;20060;-58
2024/03/27 07:01:45;;;;;;;7.30;2.20;;;;;;;9.21;84.45;98152.78;5068132;28;20503;-58
2024/03/27 07:04:11;;;;;;;6.40;2.60;;;;;;;9.42;83.89;98164.13;5057172;28;20053;-62
2024/03/27 07:06:37;;;;;;;6.38;2.47;;;;;;;9.33;83.94;98160.84;5048005;28;20057;-61
2024/03/27 07:09:04;;;;;;;8.00;2.40;;;;;;;9.51;83.05;98163.88;5048090;28;20049;-60
2024/03/27 07:11:30;;;;;;;5.32;2.17;;;;;;;9.44;83.55;98172.81;5048997;28;20049;-57
2024/03/27 07:13:56;;;;;;;9.48;2.90;;;;;;;9.32;84.20;98172.19;5058747;28;20067;-59
2024/03/27 07:16:23;;;;;;;9.57;2.90;;;;;;;9.28;83.99;98174.88;5060288;28;20049;-60
2024/03/27 07:18:49;;;;;;;7.90;2.70;;;;;;;9.06;85.23;98167.44;5050937;28;20048;-56
2024/03/27 07:21:16;;;;;;;10.02;2.90;;;;;;;9.28;85.42;98163.91;5066867;28;20057;-56
2024/03/27 07:23:42;;;;;;;9.88;2.90;;;;;;;9.40;84.50;98160.97;5040260;28;20060;-58
2024/03/27 07:26:08;;;;;;;9.30;3.47;;;;;;;9.60;83.69;98164.44;5056062;28;20056;-58
2024/03/27 07:28:35;;;;;;;10.15;3.00;;;;;;;9.40;82.92;98160.16;5068157;28;20056;-58
2024/03/27 07:31:01;;;;;;;6.47;2.35;;;;;;;9.44;82.79;98161.03;5068202;28;20100;-60
2024/03/27 07:33:28;;;;;;;6.90;2.50;;;;;;;9.34;83.14;98164.38;5052548;28;20056;-57
2024/03/27 07:35:54;;;;;;;8.63;2.97;;;;;;;9.37;82.89;98167.19;5048592;28;20059;-57
2024/03/27 07:38:20;;;;;;;9.75;2.40;;;;;;;9.53;82.81;98153.31;5055428;28;20085;-58
2024/03/27 07:40:47;;;;;;;10.63;2.60;;;;;;;9.56;81.53;98155.31;5044857;28;20057;-57
2024/03/27 07:43:13;;;;;;;8.35;2.20;;;;;;;9.38;81.38;98155.03;5056497;28;20040;-54
2024/03/27 07:45:39;;;;;;;7.55;2.85;;;;;;;9.38;81.66;98146.78;5037855;28;20800;-62
2024/03/27 07:48:06;;;;;;;18.55;3.38;;;;;;;9.48;81.33;98134.41;5056919;28;20053;-62
2024/03/27 07:50:33;;;;;;;9.27;2.72;;;;;;;9.49;80.66;98141.47;5066317;28;20059;-61
2024/03/27 07:53:00;;;;;;;6.70;2.30;;;;;;;9.43;80.22;98138.25;5048772;28;20048;-61
2024/03/27 07:55:26;;;;;;;11.30;2.60;;;;;;;9.64;79.35;98127.56;5064845;28;20059;-63
2024/03/27 07:57:52;;;;;;;7.50;2.13;;;;;;;9.49;79.58;98133.22;5059225;28;20056;-66
2024/03/27 08:00:19;;;;;;;9.15;2.58;;;;;;;9.49;79.65;98128.53;5047329;28;20052;-62
2024/03/27 08:02:45;;;;;;;6.53;2.53;;;;;;;9.39;79.39;98131.13;5031128;28;20052;-63
2024/03/27 08:05:11;;;;;;;6.25;2.28;;;;;;;9.53;80.14;98131.34;5030614;28;20049;-62
2024/03/27 08:07:38;;;;;;;5.97;2.55;;;;;;;9.62;79.08;98129.94;5030305;28;20049;-63
2024/03/27 08:10:04;;;;;;;6.22;2.83;;;;;;;9.75;78.88;98144.22;5053412;28;20048;-63
2024/03/27 08:12:31;;;;;;;4.03;2.20;;;;;;;9.78;79.43;98147.03;5050049;28;20055;-63
2024/03/27 08:14:57;;;;;;;5.43;2.20;;;;;;;9.84;78.93;98151.06;5047788;28;20071;-63
2024/03/27 08:17:26;;;;;;;10.82;2.75;;;;;;;9.80;79.04;98147.47;5030920;28;20052;-64
2024/03/27 08:19:52;;;;;;;8.20;2.42;;;;;;;9.76;80.10;98154.06;5047306;28;20053;-63
2024/03/27 08:22:19;;;;;;;6.43;2.30;;;;;;;9.75;79.30;98161.53;5053723;28;20793;-63
2024/03/27 08:24:45;;;;;;;7.93;2.42;;;;;;;9.69;78.66;98162.22;5046814;28;20119;-63
2024/03/27 08:27:12;;;;;;;9.60;2.55;;;;;;;9.61;78.58;98166.81;5046192;28;20468;-62
2024/03/27 08:29:38;;;;;;;5.47;2.00;;;;;;;9.44;78.15;98164.56;5048847;28;20045;-62
2024/03/27 08:32:04;;;;;;;8.55;2.30;;;;;;;9.81;77.13;98171.06;5060077;28;20079;-62
2024/03/27 08:34:30;;;;;;;5.88;2.13;;;;;;;9.91;76.43;98173.16;5058119;28;20057;-63
2024/03/27 08:36:57;;;;;;;5.82;2.33;;;;;;;9.58;75.38;98169.50;5047770;28;20056;-62
2024/03/27 08:39:26;;;;;;;5.63;1.90;;;;;;;9.51;76.26;98169.38;5052692;28;20500;-62
2024/03/27 08:41:54;;;;;;;7.32;3.95;;;;;;;9.51;76.36;98170.19;5059328;28;20048;-62
2024/03/27 08:44:20;;;;;;;6.60;2.78;;;;;;;9.57;76.74;98159.69;5054951;28;20065;-64
2024/03/27 08:46:46;;;;;;;4.55;2.13;;;;;;;9.66;76.95;98160.22;5063378;28;20056;-62
2024/03/27 08:49:14;;;;;;;7.07;1.88;;;;;;;9.79;76.26;98162.38;5058315;28;20052;-63
2024/03/27 08:51:41;;;;;;;6.93;1.90;;;;;;;9.92;75.40;98176.72;5046592;28;20044;-62
2024/03/27 08:54:07;;;;;;;5.78;1.92;;;;;;;9.96;74.78;98172.03;5046321;28;20052;-62
2024/03/27 08:56:35;;;;;;;6.85;2.00;;;;;;;10.01;75.06;98178.00;5055350;28;20048;-62
2024/03/27 08:59:01;;;;;;;4.00;1.60;;;;;;;10.46;74.04;98168.81;5030449;28;20083;-62
2024/03/27 09:01:28;;;;;;;4.13;1.63;;;;;;;10.28;72.79;98178.81;5046568;28;20044;-63
2024/03/27 09:03:54;;;;;;;5.57;1.58;;;;;;;10.29;74.20;98185.91;5046562;28;20052;-62
2024/03/27 09:06:22;;;;;;;6.88;3.35;;;;;;;10.34;74.41;98193.03;5036047;28;20045;-63
2024/03/27 09:08:48;;;;;;;5.88;2.45;;;;;;;10.38;74.33;98193.88;5064624;28;20048;-62
2024/03/27 09:11:15;;;;;;;5.53;2.25;;;;;;;10.39;73.52;98204.50;5048939;28;20051;-64
2024/03/27 09:13:41;;;;;;;8.35;2.40;;;;;;;10.32;73.99;98212.66;5050098;28;20055;-62
2024/03/27 09:16:08;;;;;;;4.72;2.47;;;;;;;10.49;73.59;98214.88;5057181;28;20060;-62
2024/03/27 09:18:35;;;;;;;3.75;2.08;;;;;;;10.45;74.02;98219.53;5056656;28;20045;-62
2024/03/27 09:21:02;;;;;;;7.07;2.70;;;;;;;10.54;73.62;98219.25;5045539;28;20052;-61
2024/03/27 09:23:28;;;;;;;9.70;2.33;;;;;;;10.36;74.80;98223.72;5046402;28;20048;-61
2024/03/27 09:25:57;;;;;;;10.73;2.67;;;;;;;10.56;74.41;98223.22;5031186;28;20061;-62
2024/03/27 09:28:23;;;;;;;5.05;2.10;;;;;;;10.53;75.18;98223.94;5049381;28;20045;-63
2024/03/27 09:30:49;;;;;;;8.02;2.38;;;;;;;10.25;75.72;98231.03;5052959;28;20053;-62
2024/03/27 09:33:16;;;;;;;5.47;2.40;;;;;;;10.22;77.63;98226.28;5051112;28;20049;-63
2024/03/27 09:35:44;;;;;;;8.15;3.70;;;;;;;10.30;77.88;98216.97;5040574;28;20053;-63
2024/03/27 09:38:11;;;;;;;7.25;2.47;;;;;;;10.15;77.95;98218.72;5050427;28;20048;-63
2024/03/27 09:40:44;;;;;;;6.78;2.20;;;;;;;10.20;78.10;98224.69;5046862;28;20036;-62
2024/03/27 09:43:14;;;;;;;9.00;2.60;;;;;;;10.55;77.87;98226.34;5067277;28;20048;-61
2024/03/27 09:45:45;;;;;;;6.75;2.10;;;;;;;10.74;77.25;98226.97;5051995;28;20049;-63
2024/03/27 09:48:12;;;;;;;5.15;2.00;;;;;;;10.87;75.92;98219.25;5051927;28;20060;-63
2024/03/27 09:50:39;;;;;;;4.40;1.90;;;;;;;10.79;75.30;98237.66;5065227;28;20052;-62
2024/03/27 09:53:06;;;;;;;6.13;2.83;;;;;;;11.11;74.21;98238.84;5069084;28;20097;-62
2024/03/27 09:55:34;;;;;;;4.53;2.20;;;;;;;10.96;74.67;98225.28;5069328;28;20044;-63
2024/03/27 09:58:03;;;;;;;3.45;1.80;;;;;;;11.25;73.35;98227.16;5050384;28;20053;-62
2024/03/27 10:00:30;;;;;;;3.10;1.50;;;;;;;11.15;71.39;98225.09;5055385;28;20064;-64
2024/03/27 10:02:58;;;;;;;9.55;1.60;;;;;;;11.38;71.79;98224.94;5057410;28;20535;-65
2024/03/27 10:05:26;;;;;;;4.88;2.00;;;;;;;11.53;70.42;98221.94;5041961;28;20044;-64
2024/03/27 10:07:53;;;;;;;4.00;1.70;;;;;;;11.56;68.75;98223.91;5066717;28;20052;-62
2024/03/27 10:10:19;;;;;;;4.75;1.77;;;;;;;11.34;69.04;98224.91;5068861;28;20048;-63
2024/03/27 10:12:46;;;;;;;4.47;1.65;;;;;;;11.61;68.53;98217.28;5060742;28;20041;-63
2024/03/27 10:15:12;;;;;;;3.90;1.50;;;;;;;11.65;67.44;98215.34;5059934;28;20056;-63
2024/03/27 10:17:38;;;;;;;4.95;1.75;;;;;;;11.42;67.03;98221.03;5058301;28;20048;-64
2024/03/27 10:20:06;;;;;;;8.80;1.52;;;;;;;11.45;67.19;98217.53;5067472;28;20048;-62
2024/03/27 10:22:33;;;;;;;4.05;1.50;;;;;;;11.44;68.54;98217.91;5049606;28;20049;-62
2024/03/27 10:25:01;;;;;;;2.92;1.35;;;;;;;11.41;67.79;98216.69;5049512;28;20476;-63
2024/03/27 10:27:29;;;;;;;4.70;1.80;;;;;;;11.50;67.14;98224.66;5048983;28;20049;-62
2024/03/27 10:29:55;;;;;;;5.20;1.70;;;;;;;11.30;67.82;98227.63;5042416;28;20057;-63
2024/03/27 10:32:22;;;;;;;4.93;2.00;;;;;;;11.25;67.94;98227.97;5055081;28;20577;-62
2024/03/27 10:34:49;;;;;;;5.53;1.83;;;;;;;11.45;68.67;98231.31;5048758;28;20052;-62
2024/03/27 10:37:16;;;;;;;9.13;1.90;;;;;;;11.47;67.97;98226.22;5050319;28;20049;-64
2024/03/27 10:39:50;;;;;;;3.25;1.55;;;;;;;11.33;68.71;98229.59;5059960;28;20048;-62
2024/03/27 10:42:22;;;;;;;5.95;1.50;;;;;;;11.77;67.54;98229.66;5054885;28;20652;-63
2024/03/27 10:44:50;;;;;;;5.97;1.70;;;;;;;11.68;67.96;98233.91;5055270;28;20060;-62
2024/03/27 10:47:17;;;;;;;3.05;1.40;;;;;;;11.59;68.17;98227.91;5016783;28;20053;-62
2024/03/27 10:49:45;;;;;;;4.20;1.50;;;;;;;11.62;68.29;98229.88;5037243;28;20082;-62
2024/03/27 10:52:12;;;;;;;6.07;1.73;;;;;;;11.40;68.90;98228.91;5063562;28;20052;-62
2024/03/27 10:54:38;;;;;;;3.38;1.80;;;;;;;11.45;68.67;98228.56;5019475;28;20053;-62
2024/03/27 10:57:05;;;;;;;6.47;1.58;;;;;;;11.68;68.86;98223.66;5032986;28;20056;-63
2024/03/27 10:59:32;;;;;;;7.40;1.95;;;;;;;11.86;68.11;98221.06;5066349;28;20060;-63
2024/03/27 11:02:03;;;;;;;6.13;1.67;;;;;;;11.79;67.54;98215.47;5049034;28;20036;-63
2024/03/27 11:04:30;;;;;;;4.32;1.58;;;;;;;12.14;67.38;98210.22;5038202;28;20650;-61
2024/03/27 11:06:57;;;;;;;5.82;1.58;;;;;;;12.39;65.99;98211.19;5049388;28;20053;-62
2024/03/27 11:09:24;;;;;;;9.30;1.95;;;;;;;12.33;64.70;98209.94;5058372;28;20055;-62
2024/03/27 11:11:50;;;;;;;8.45;4.03;;;;;;;12.56;63.51;98202.19;5053272;28;20045;-62
2024/03/27 11:14:18;;;;;;;7.78;3.85;;;;;;;12.42;62.81;98191.88;5027871;28;20471;-62
2024/03/27 11:16:55;;;;;;;6.25;3.20;;;;;;;12.55;62.61;98186.81;5061139;28;20060;-61
2024/03/27 11:19:34;;;;;;;4.22;1.92;;;;;;;12.72;61.15;98185.28;5052357;28;20052;-63
2024/03/27 11:22:12;;;;;;;10.82;1.75;;;;;;;12.69;59.49;98166.75;5062308;28;20557;-62
2024/03/27 11:24:39;;;;;;;4.53;1.55;;;;;;;12.76;58.02;98175.06;5042359;28;20499;-62
2024/03/27 11:27:05;;;;;;;7.47;2.75;;;;;;;12.64;58.58;98176.19;5032399;28;20056;-62
2024/03/27 11:29:32;;;;;;;5.15;2.13;;;;;;;12.77;57.54;98173.88;5048082;28;20059;-62
2024/03/27 11:32:00;;;;;;;5.32;2.40;;;;;;;12.86;57.53;98172.34;5043055;28;20053;-61
2024/03/27 11:34:28;;;;;;;4.88;1.83;;;;;;;13.17;57.21;98171.66;5056515;28;20224;-62
2024/03/27 11:36:55;;;;;;;6.28;1.38;;;;;;;12.89;57.11;98159.69;5047933;28;20148;-62